sensor_id;sensor_type;location;lat;lon;timestamp;pressure;altitude;pressure_sealevel;temperature
34807;BMP180;18310;55.586;12.286;2023-04-15T00:00:31;101185.84;;;14.41
34807;BMP180;18310;55.586;12.286;2023-04-15T00:03:35;101178.00;;;14.39
34807;BMP180;18310;55.586;12.286;2023-04-15T00:06:39;101182.63;;;14.35
34807;BMP180;18310;55.586;12.286;2023-04-15T00:09:44;101184.91;;;14.33
34807;BMP180;18310;55.586;12.286;2023-04-15T00:12:47;101177.06;;;14.32
34807;BMP180;18310;55.586;12.286;2023-04-15T00:15:50;101184.91;;;14.33
34807;BMP180;18310;55.586;12.286;2023-04-15T00:18:53;101180.91;;;14.27
34807;BMP180;18310;55.586;12.286;2023-04-15T00:21:58;101183.22;;;14.25
34807;BMP180;18310;55.586;12.286;2023-04-15T00:25:03;101182.66;;;14.16
34807;BMP180;18310;55.586;12.286;2023-04-15T00:28:07;101183.03;;;14.15
34807;BMP180;18310;55.586;12.286;2023-04-15T00:31:11;101179.06;;;14.12
34807;BMP180;18310;55.586;12.286;2023-04-15T00:34:14;101176.25;;;14.09
34807;BMP180;18310;55.586;12.286;2023-04-15T00:37:17;101166.09;;;14.09
34807;BMP180;18310;55.586;12.286;2023-04-15T00:40:23;101160.50;;;14.02
34807;BMP180;18310;55.586;12.286;2023-04-15T00:43:32;101163.69;;;14.08
34807;BMP180;18310;55.586;12.286;2023-04-15T00:46:36;101168.75;;;14.06
34807;BMP180;18310;55.586;12.286;2023-04-15T00:49:40;101165.63;;;14.04
34807;BMP180;18310;55.586;12.286;2023-04-15T00:52:43;101168.00;;;14.05
34807;BMP180;18310;55.586;12.286;2023-04-15T00:55:49;101173.47;;;14.05
34807;BMP180;18310;55.586;12.286;2023-04-15T00:58:53;101160.50;;;14.02
34807;BMP180;18310;55.586;12.286;2023-04-15T01:01:57;101170.28;;;14.03
34807;BMP180;18310;55.586;12.286;2023-04-15T01:05:01;101167.59;;;14.07
34807;BMP180;18310;55.586;12.286;2023-04-15T01:08:05;101171.88;;;14.04
34807;BMP180;18310;55.586;12.286;2023-04-15T01:11:11;101169.44;;;13.99
34807;BMP180;18310;55.586;12.286;2023-04-15T01:14:14;101173.31;;;13.98
34807;BMP180;18310;55.586;12.286;2023-04-15T01:17:18;101179.13;;;13.96
34807;BMP180;18310;55.586;12.286;2023-04-15T01:20:22;101161.88;;;13.92
34807;BMP180;18310;55.586;12.286;2023-04-15T01:23:25;101170.91;;;13.93
34807;BMP180;18310;55.586;12.286;2023-04-15T01:26:30;101172.38;;;13.90
34807;BMP180;18310;55.586;12.286;2023-04-15T01:29:36;101166.47;;;13.88
34807;BMP180;18310;55.586;12.286;2023-04-15T01:32:40;101169.13;;;13.85
34807;BMP180;18310;55.586;12.286;2023-04-15T01:35:43;101173.81;;;13.84
34807;BMP180;18310;55.586;12.286;2023-04-15T01:38:47;101173.47;;;13.86
34807;BMP180;18310;55.586;12.286;2023-04-15T01:41:52;101172.75;;;13.89
34807;BMP180;18310;55.586;12.286;2023-04-15T01:44:55;101173.19;;;13.91
34807;BMP180;18310;55.586;12.286;2023-04-15T01:47:58;101166.06;;;13.86
34807;BMP180;18310;55.586;12.286;2023-04-15T01:51:02;101164.91;;;13.87
34807;BMP180;18310;55.586;12.286;2023-04-15T01:54:06;101162.06;;;13.84
34807;BMP180;18310;55.586;12.286;2023-04-15T01:57:11;101164.78;;;13.80
34807;BMP180;18310;55.586;12.286;2023-04-15T02:00:15;101168.66;;;13.79
34807;BMP180;18310;55.586;12.286;2023-04-15T02:03:18;101158.84;;;13.78
34807;BMP180;18310;55.586;12.286;2023-04-15T02:06:21;101171.28;;;13.76
34807;BMP180;18310;55.586;12.286;2023-04-15T02:09:25;101165.75;;;13.72
34807;BMP180;18310;55.586;12.286;2023-04-15T02:12:30;101175.50;;;13.70
34807;BMP180;18310;55.586;12.286;2023-04-15T02:15:33;101166.41;;;13.66
34807;BMP180;18310;55.586;12.286;2023-04-15T02:18:36;101159.69;;;13.63
34807;BMP180;18310;55.586;12.286;2023-04-15T02:21:40;101166.69;;;13.61
34807;BMP180;18310;55.586;12.286;2023-04-15T02:24:43;101169.38;;;13.57
34807;BMP180;18310;55.586;12.286;2023-04-15T02:27:48;101167.34;;;13.54
34807;BMP180;18310;55.586;12.286;2023-04-15T02:30:51;101170.78;;;13.51
34807;BMP180;18310;55.586;12.286;2023-04-15T02:33:57;101173.97;;;13.53
34807;BMP180;18310;55.586;12.286;2023-04-15T02:37:01;101178.63;;;13.52
34807;BMP180;18310;55.586;12.286;2023-04-15T02:40:06;101175.22;;;13.56
34807;BMP180;18310;55.586;12.286;2023-04-15T02:43:10;101179.09;;;13.55
34807;BMP180;18310;55.586;12.286;2023-04-15T02:46:14;101179.88;;;13.55
34807;BMP180;18310;55.586;12.286;2023-04-15T02:49:18;101175.41;;;13.47
34807;BMP180;18310;55.586;12.286;2023-04-15T02:52:21;101186.16;;;13.56
34807;BMP180;18310;55.586;12.286;2023-04-15T02:55:25;101178.94;;;13.47
34807;BMP180;18310;55.586;12.286;2023-04-15T02:58:30;101177.78;;;13.48
34807;BMP180;18310;55.586;12.286;2023-04-15T03:01:33;101178.50;;;13.45
34807;BMP180;18310;55.586;12.286;2023-04-15T03:04:36;101181.22;;;13.45
34807;BMP180;18310;55.586;12.286;2023-04-15T03:07:40;101185.63;;;13.50
34807;BMP180;18310;55.586;12.286;2023-04-15T03:10:44;101197.78;;;13.52
34807;BMP180;18310;55.586;12.286;2023-04-15T03:13:49;101196.63;;;13.53
34807;BMP180;18310;55.586;12.286;2023-04-15T03:16:52;101196.38;;;13.59
34807;BMP180;18310;55.586;12.286;2023-04-15T03:19:55;101191.25;;;13.57
34807;BMP180;18310;55.586;12.286;2023-04-15T03:22:59;101194.84;;;13.61
34807;BMP180;18310;55.586;12.286;2023-04-15T03:26:03;101197.59;;;13.61
34807;BMP180;18310;55.586;12.286;2023-04-15T03:29:08;101191.75;;;13.63
34807;BMP180;18310;55.586;12.286;2023-04-15T03:32:11;101194.91;;;13.65
34807;BMP180;18310;55.586;12.286;2023-04-15T03:35:16;101200.84;;;13.67
34807;BMP180;18310;55.586;12.286;2023-04-15T03:38:19;101209.09;;;13.70
34807;BMP180;18310;55.586;12.286;2023-04-15T03:41:23;101205.66;;;13.73
34807;BMP180;18310;55.586;12.286;2023-04-15T03:44:29;101205.38;;;13.78
34807;BMP180;18310;55.586;12.286;2023-04-15T03:47:32;101200.97;;;13.74
34807;BMP180;18310;55.586;12.286;2023-04-15T03:50:36;101194.72;;;13.73
34807;BMP180;18310;55.586;12.286;2023-04-15T03:53:39;101204.41;;;13.71
34807;BMP180;18310;55.586;12.286;2023-04-15T03:56:42;101205.97;;;13.68
34807;BMP180;18310;55.586;12.286;2023-04-15T03:59:47;101201.53;;;13.64
34807;BMP180;18310;55.586;12.286;2023-04-15T04:02:50;101206.94;;;13.60
34807;BMP180;18310;55.586;12.286;2023-04-15T04:05:54;101213.50;;;13.56
34807;BMP180;18310;55.586;12.286;2023-04-15T04:08:58;101218.78;;;13.48
34807;BMP180;18310;55.586;12.286;2023-04-15T04:12:03;101227.78;;;13.49
34807;BMP180;18310;55.586;12.286;2023-04-15T04:15:08;101230.38;;;13.42
34807;BMP180;18310;55.586;12.286;2023-04-15T04:18:12;101222.19;;;13.42
34807;BMP180;18310;55.586;12.286;2023-04-15T04:21:16;101222.88;;;13.39
34807;BMP180;18310;55.586;12.286;2023-04-15T04:24:19;101232.16;;;13.34
34807;BMP180;18310;55.586;12.286;2023-04-15T04:27:22;101230.56;;;13.33
34807;BMP180;18310;55.586;12.286;2023-04-15T04:30:27;101229.78;;;13.33
34807;BMP180;18310;55.586;12.286;2023-04-15T04:33:30;101237.19;;;13.32
34807;BMP180;18310;55.586;12.286;2023-04-15T04:36:34;101237.78;;;13.26
34807;BMP180;18310;55.586;12.286;2023-04-15T04:39:37;101238.78;;;13.33
34807;BMP180;18310;55.586;12.286;2023-04-15T04:42:41;101245.50;;;13.36
34807;BMP180;18310;55.586;12.286;2023-04-15T04:45:46;101245.88;;;13.38
34807;BMP180;18310;55.586;12.286;2023-04-15T04:48:49;101242.53;;;13.44
34807;BMP180;18310;55.586;12.286;2023-04-15T04:51:52;101248.81;;;13.45
34807;BMP180;18310;55.586;12.286;2023-04-15T04:54:55;101246.94;;;13.49
34807;BMP180;18310;55.586;12.286;2023-04-15T04:57:59;101245.88;;;13.53
34807;BMP180;18310;55.586;12.286;2023-04-15T05:01:04;101257.75;;;13.61
34807;BMP180;18310;55.586;12.286;2023-04-15T05:04:07;101254.22;;;13.61
34807;BMP180;18310;55.586;12.286;2023-04-15T05:07:11;101255.03;;;13.61
34807;BMP180;18310;55.586;12.286;2023-04-15T05:10:15;101270.03;;;13.67
34807;BMP180;18310;55.586;12.286;2023-04-15T05:13:19;101263.91;;;13.74
34807;BMP180;18310;55.586;12.286;2023-04-15T05:16:24;101270.97;;;13.75
34807;BMP180;18310;55.586;12.286;2023-04-15T05:19:27;101275.25;;;13.76
34807;BMP180;18310;55.586;12.286;2023-04-15T05:22:31;101271.84;;;13.79
34807;BMP180;18310;55.586;12.286;2023-04-15T05:25:35;101260.94;;;13.82
34807;BMP180;18310;55.586;12.286;2023-04-15T05:28:38;101281.69;;;13.83
34807;BMP180;18310;55.586;12.286;2023-04-15T05:31:43;101273.19;;;13.88
34807;BMP180;18310;55.586;12.286;2023-04-15T05:34:46;101274.44;;;13.91
34807;BMP180;18310;55.586;12.286;2023-04-15T05:37:49;101271.34;;;13.92
34807;BMP180;18310;55.586;12.286;2023-04-15T05:40:53;101284.25;;;13.92
34807;BMP180;18310;55.586;12.286;2023-04-15T05:43:57;101281.19;;;13.97
34807;BMP180;18310;55.586;12.286;2023-04-15T05:47:02;101297.84;;;14.08
34807;BMP180;18310;55.586;12.286;2023-04-15T05:50:07;101297.66;;;14.16
34807;BMP180;18310;55.586;12.286;2023-04-15T05:53:10;101295.47;;;14.25
34807;BMP180;18310;55.586;12.286;2023-04-15T05:56:13;101292.50;;;14.34
34807;BMP180;18310;55.586;12.286;2023-04-15T05:59:17;101300.47;;;14.42
34807;BMP180;18310;55.586;12.286;2023-04-15T06:02:22;101291.47;;;14.61
34807;BMP180;18310;55.586;12.286;2023-04-15T06:05:25;101296.22;;;14.87
34807;BMP180;18310;55.586;12.286;2023-04-15T06:08:29;101307.97;;;15.10
34807;BMP180;18310;55.586;12.286;2023-04-15T06:11:32;101311.38;;;15.26
34807;BMP180;18310;55.586;12.286;2023-04-15T06:14:36;101326.88;;;15.41
34807;BMP180;18310;55.586;12.286;2023-04-15T06:17:41;101327.00;;;15.49
34807;BMP180;18310;55.586;12.286;2023-04-15T06:20:44;101319.25;;;15.58
34807;BMP180;18310;55.586;12.286;2023-04-15T06:23:47;101341.16;;;15.51
34807;BMP180;18310;55.586;12.286;2023-04-15T06:26:51;101324.94;;;15.42
34807;BMP180;18310;55.586;12.286;2023-04-15T06:29:54;101328.13;;;15.48
34807;BMP180;18310;55.586;12.286;2023-04-15T06:32:59;101327.94;;;15.60
34807;BMP180;18310;55.586;12.286;2023-04-15T06:36:04;101340.97;;;15.96
34807;BMP180;18310;55.586;12.286;2023-04-15T06:39:07;101348.13;;;16.34
34807;BMP180;18310;55.586;12.286;2023-04-15T06:42:11;101349.72;;;16.75
34807;BMP180;18310;55.586;12.286;2023-04-15T06:45:14;101335.84;;;17.05
34807;BMP180;18310;55.586;12.286;2023-04-15T06:48:20;101364.44;;;17.44
34807;BMP180;18310;55.586;12.286;2023-04-15T06:51:23;101362.69;;;17.77
34807;BMP180;18310;55.586;12.286;2023-04-15T06:54:27;101353.31;;;17.92
34807;BMP180;18310;55.586;12.286;2023-04-15T06:57:31;101369.09;;;18.02
34807;BMP180;18310;55.586;12.286;2023-04-15T07:00:36;101384.88;;;18.12
34807;BMP180;18310;55.586;12.286;2023-04-15T07:03:41;101381.78;;;18.21
34807;BMP180;18310;55.586;12.286;2023-04-15T07:06:45;101385.34;;;18.28
34807;BMP180;18310;55.586;12.286;2023-04-15T07:09:48;101392.06;;;18.34
34807;BMP180;18310;55.586;12.286;2023-04-15T07:12:51;101392.09;;;18.41
34807;BMP180;18310;55.586;12.286;2023-04-15T07:15:54;101388.91;;;18.43
34807;BMP180;18310;55.586;12.286;2023-04-15T07:18:59;101396.06;;;18.58
34807;BMP180;18310;55.586;12.286;2023-04-15T07:22:03;101392.53;;;18.61
34807;BMP180;18310;55.586;12.286;2023-04-15T07:25:07;101402.72;;;18.50
34807;BMP180;18310;55.586;12.286;2023-04-15T07:28:10;101408.50;;;18.13
34807;BMP180;18310;55.586;12.286;2023-04-15T07:31:14;101413.09;;;17.84
34807;BMP180;18310;55.586;12.286;2023-04-15T07:34:19;101414.50;;;17.64
34807;BMP180;18310;55.586;12.286;2023-04-15T07:37:22;101411.72;;;17.54
34807;BMP180;18310;55.586;12.286;2023-04-15T07:40:26;101415.19;;;17.43
34807;BMP180;18310;55.586;12.286;2023-04-15T07:43:29;101412.72;;;17.31
34807;BMP180;18310;55.586;12.286;2023-04-15T07:46:32;101413.06;;;17.26
34807;BMP180;18310;55.586;12.286;2023-04-15T07:49:37;101414.44;;;17.03
34807;BMP180;18310;55.586;12.286;2023-04-15T07:52:40;101410.06;;;16.98
34807;BMP180;18310;55.586;12.286;2023-04-15T07:55:44;101422.94;;;16.90
34807;BMP180;18310;55.586;12.286;2023-04-15T07:58:47;101416.63;;;16.86
34807;BMP180;18310;55.586;12.286;2023-04-15T08:01:51;101416.88;;;16.74
34807;BMP180;18310;55.586;12.286;2023-04-15T08:04:56;101431.00;;;16.73
34807;BMP180;18310;55.586;12.286;2023-04-15T08:08:00;101421.09;;;16.65
34807;BMP180;18310;55.586;12.286;2023-04-15T08:11:04;101429.28;;;16.58
34807;BMP180;18310;55.586;12.286;2023-04-15T08:14:07;101419.81;;;16.59
34807;BMP180;18310;55.586;12.286;2023-04-15T08:17:10;101439.53;;;16.64
34807;BMP180;18310;55.586;12.286;2023-04-15T08:20:15;101437.53;;;16.61
34807;BMP180;18310;55.586;12.286;2023-04-15T08:23:18;101424.66;;;16.65
34807;BMP180;18310;55.586;12.286;2023-04-15T08:26:22;101429.41;;;16.68
34807;BMP180;18310;55.586;12.286;2023-04-15T08:29:25;101431.69;;;16.63
34807;BMP180;18310;55.586;12.286;2023-04-15T08:32:29;101412.00;;;16.57
34807;BMP180;18310;55.586;12.286;2023-04-15T08:35:35;101416.03;;;16.67
34807;BMP180;18310;55.586;12.286;2023-04-15T08:38:38;101427.84;;;16.71
34807;BMP180;18310;55.586;12.286;2023-04-15T08:41:45;101415.00;;;16.78
34807;BMP180;18310;55.586;12.286;2023-04-15T08:44:49;101426.03;;;16.85
34807;BMP180;18310;55.586;12.286;2023-04-15T08:47:54;101424.16;;;16.93
34807;BMP180;18310;55.586;12.286;2023-04-15T08:50:59;101431.63;;;16.96
34807;BMP180;18310;55.586;12.286;2023-04-15T08:54:03;101432.53;;;17.07
34807;BMP180;18310;55.586;12.286;2023-04-15T08:57:07;101429.81;;;17.11
34807;BMP180;18310;55.586;12.286;2023-04-15T09:00:11;101427.53;;;17.20
34807;BMP180;18310;55.586;12.286;2023-04-15T09:03:15;101435.03;;;17.19
34807;BMP180;18310;55.586;12.286;2023-04-15T09:06:21;101434.69;;;17.28
34807;BMP180;18310;55.586;12.286;2023-04-15T09:09:26;101445.94;;;17.56
34807;BMP180;18310;55.586;12.286;2023-04-15T09:12:33;101448.22;;;17.47
34807;BMP180;18310;55.586;12.286;2023-04-15T09:15:37;101433.69;;;17.47
34807;BMP180;18310;55.586;12.286;2023-04-15T09:18:42;101425.53;;;17.61
34807;BMP180;18310;55.586;12.286;2023-04-15T09:21:47;101437.41;;;17.75
34807;BMP180;18310;55.586;12.286;2023-04-15T09:24:50;101428.41;;;17.85
34807;BMP180;18310;55.586;12.286;2023-04-15T09:27:55;101447.75;;;17.96
34807;BMP180;18310;55.586;12.286;2023-04-15T09:31:00;101434.47;;;18.05
34807;BMP180;18310;55.586;12.286;2023-04-15T09:34:03;101441.56;;;18.13
34807;BMP180;18310;55.586;12.286;2023-04-15T09:37:09;101436.44;;;18.12
34807;BMP180;18310;55.586;12.286;2023-04-15T09:40:34;101442.41;;;18.21
34807;BMP180;18310;55.586;12.286;2023-04-15T09:43:39;101456.59;;;18.26
34807;BMP180;18310;55.586;12.286;2023-04-15T09:46:43;101447.56;;;18.33
34807;BMP180;18310;55.586;12.286;2023-04-15T09:49:54;101458.59;;;18.33
34807;BMP180;18310;55.586;12.286;2023-04-15T09:53:02;101455.09;;;18.39
34807;BMP180;18310;55.586;12.286;2023-04-15T09:56:06;101459.03;;;18.45
34807;BMP180;18310;55.586;12.286;2023-04-15T09:59:11;101463.78;;;18.49
34807;BMP180;18310;55.586;12.286;2023-04-15T10:02:15;101474.84;;;18.59
34807;BMP180;18310;55.586;12.286;2023-04-15T10:05:20;101476.09;;;18.83
34807;BMP180;18310;55.586;12.286;2023-04-15T10:08:27;101502.06;;;18.78
34807;BMP180;18310;55.586;12.286;2023-04-15T10:11:30;101482.81;;;18.85
34807;BMP180;18310;55.586;12.286;2023-04-15T10:14:34;101489.13;;;18.89
34807;BMP180;18310;55.586;12.286;2023-04-15T10:17:40;101477.72;;;18.98
34807;BMP180;18310;55.586;12.286;2023-04-15T10:20:47;101486.75;;;18.91
34807;BMP180;18310;55.586;12.286;2023-04-15T10:23:52;101483.56;;;18.79
34807;BMP180;18310;55.586;12.286;2023-04-15T10:26:56;101489.50;;;18.88
34807;BMP180;18310;55.586;12.286;2023-04-15T10:30:00;101491.88;;;18.93
34807;BMP180;18310;55.586;12.286;2023-04-15T10:33:04;101484.41;;;18.97
34807;BMP180;18310;55.586;12.286;2023-04-15T10:36:09;101500.97;;;19.18
34807;BMP180;18310;55.586;12.286;2023-04-15T10:39:40;101498.59;;;19.06
34807;BMP180;18310;55.586;12.286;2023-04-15T10:42:44;101496.66;;;19.17
34807;BMP180;18310;55.586;12.286;2023-04-15T10:45:47;101497.03;;;19.23
34807;BMP180;18310;55.586;12.286;2023-04-15T10:48:52;101496.25;;;19.26
34807;BMP180;18310;55.586;12.286;2023-04-15T10:51:57;101489.56;;;19.30
34807;BMP180;18310;55.586;12.286;2023-04-15T10:55:13;101496.28;;;19.43
34807;BMP180;18310;55.586;12.286;2023-04-15T10:58:17;101493.13;;;19.52
34807;BMP180;18310;55.586;12.286;2023-04-15T11:01:21;101497.47;;;19.57
34807;BMP180;18310;55.586;12.286;2023-04-15T11:04:50;101495.06;;;19.62
34807;BMP180;18310;55.586;12.286;2023-04-15T11:07:54;101502.19;;;19.56
34807;BMP180;18310;55.586;12.286;2023-04-15T11:10:59;101508.06;;;19.62
34807;BMP180;18310;55.586;12.286;2023-04-15T11:14:03;101502.19;;;19.52
34807;BMP180;18310;55.586;12.286;2023-04-15T11:17:06;101511.66;;;19.51
34807;BMP180;18310;55.586;12.286;2023-04-15T11:20:12;101523.06;;;19.57
34807;BMP180;18310;55.586;12.286;2023-04-15T11:23:18;101555.47;;;19.57
34807;BMP180;18310;55.586;12.286;2023-04-15T11:26:24;101519.56;;;19.42
34807;BMP180;18310;55.586;12.286;2023-04-15T11:29:29;101527.84;;;19.57
34807;BMP180;18310;55.586;12.286;2023-04-15T11:32:33;101526.22;;;19.48
34807;BMP180;18310;55.586;12.286;2023-04-15T11:35:37;101520.75;;;19.56
34807;BMP180;18310;55.586;12.286;2023-04-15T11:38:42;101534.13;;;19.46
34807;BMP180;18310;55.586;12.286;2023-04-15T11:41:48;101529.78;;;19.45
34807;BMP180;18310;55.586;12.286;2023-04-15T11:45:05;101534.50;;;19.48
34807;BMP180;18310;55.586;12.286;2023-04-15T11:48:11;101530.59;;;19.53
34807;BMP180;18310;55.586;12.286;2023-04-15T11:51:15;101549.53;;;19.51
34807;BMP180;18310;55.586;12.286;2023-04-15T11:54:18;101541.66;;;19.57
34807;BMP180;18310;55.586;12.286;2023-04-15T11:57:30;101568.47;;;19.60
34807;BMP180;18310;55.586;12.286;2023-04-15T12:00:34;101558.22;;;19.67
34807;BMP180;18310;55.586;12.286;2023-04-15T12:03:39;101562.53;;;19.72
34807;BMP180;18310;55.586;12.286;2023-04-15T12:06:43;101564.13;;;19.69
34807;BMP180;18310;55.586;12.286;2023-04-15T12:09:53;101563.34;;;19.72
34807;BMP180;18310;55.586;12.286;2023-04-15T12:12:59;101571.66;;;19.65
34807;BMP180;18310;55.586;12.286;2023-04-15T12:16:02;101583.81;;;19.57
34807;BMP180;18310;55.586;12.286;2023-04-15T12:19:09;101585.03;;;19.60
34807;BMP180;18310;55.586;12.286;2023-04-15T12:22:14;101589.75;;;19.59
34807;BMP180;18310;55.586;12.286;2023-04-15T12:25:18;101585.44;;;19.55
34807;BMP180;18310;55.586;12.286;2023-04-15T12:28:22;101593.34;;;19.56
34807;BMP180;18310;55.586;12.286;2023-04-15T12:31:26;101590.16;;;19.58
34807;BMP180;18310;55.586;12.286;2023-04-15T12:34:30;101587.38;;;19.58
34807;BMP180;18310;55.586;12.286;2023-04-15T12:37:34;101590.53;;;19.70
34807;BMP180;18310;55.586;12.286;2023-04-15T12:40:37;101588.59;;;19.64
34807;BMP180;18310;55.586;12.286;2023-04-15T12:43:44;101607.16;;;19.67
34807;BMP180;18310;55.586;12.286;2023-04-15T12:46:47;101609.09;;;19.59
34807;BMP180;18310;55.586;12.286;2023-04-15T12:49:51;101609.91;;;19.67
34807;BMP180;18310;55.586;12.286;2023-04-15T12:52:55;101610.25;;;19.44
34807;BMP180;18310;55.586;12.286;2023-04-15T12:55:58;101614.59;;;19.41
34807;BMP180;18310;55.586;12.286;2023-04-15T12:59:03;101621.31;;;19.47
34807;BMP180;18310;55.586;12.286;2023-04-15T13:02:07;101623.72;;;19.52
34807;BMP180;18310;55.586;12.286;2023-04-15T13:05:10;101631.56;;;19.47
34807;BMP180;18310;55.586;12.286;2023-04-15T13:08:15;101627.63;;;19.30
34807;BMP180;18310;55.586;12.286;2023-04-15T13:11:19;101621.69;;;19.21
34807;BMP180;18310;55.586;12.286;2023-04-15T13:14:24;101638.25;;;19.21
34807;BMP180;18310;55.586;12.286;2023-04-15T13:17:27;101632.28;;;19.23
34807;BMP180;18310;55.586;12.286;2023-04-15T13:20:31;101672.16;;;19.29
34807;BMP180;18310;55.586;12.286;2023-04-15T13:23:34;101633.56;;;19.39
34807;BMP180;18310;55.586;12.286;2023-04-15T13:26:38;101633.09;;;19.27
34807;BMP180;18310;55.586;12.286;2023-04-15T13:29:43;101635.47;;;19.21
34807;BMP180;18310;55.586;12.286;2023-04-15T13:32:47;101656.41;;;19.29
34807;BMP180;18310;55.586;12.286;2023-04-15T13:35:51;101636.66;;;19.31
34807;BMP180;18310;55.586;12.286;2023-04-15T13:38:54;101660.75;;;19.30
34807;BMP180;18310;55.586;12.286;2023-04-15T13:41:58;101652.47;;;19.30
34807;BMP180;18310;55.586;12.286;2023-04-15T13:45:04;101659.56;;;19.35
34807;BMP180;18310;55.586;12.286;2023-04-15T13:48:08;101665.88;;;19.32
34807;BMP180;18310;55.586;12.286;2023-04-15T13:51:11;101657.56;;;19.28
34807;BMP180;18310;55.586;12.286;2023-04-15T13:54:15;101660.69;;;19.23
34807;BMP180;18310;55.586;12.286;2023-04-15T13:57:18;101676.06;;;19.17
34807;BMP180;18310;55.586;12.286;2023-04-15T14:00:23;101672.47;;;19.13
34807;BMP180;18310;55.586;12.286;2023-04-15T14:03:26;101679.19;;;19.12
34807;BMP180;18310;55.586;12.286;2023-04-15T14:06:30;101676.41;;;19.05
34807;BMP180;18310;55.586;12.286;2023-04-15T14:09:34;101680.28;;;18.93
34807;BMP180;18310;55.586;12.286;2023-04-15T14:12:37;101669.97;;;18.80
34807;BMP180;18310;55.586;12.286;2023-04-15T14:15:42;101685.38;;;18.84
34807;BMP180;18310;55.586;12.286;2023-04-15T14:18:45;101675.00;;;18.67
34807;BMP180;18310;55.586;12.286;2023-04-15T14:21:49;101694.31;;;18.64
34807;BMP180;18310;55.586;12.286;2023-04-15T14:24:52;101704.47;;;18.56
34807;BMP180;18310;55.586;12.286;2023-04-15T14:27:56;101698.16;;;18.52
34807;BMP180;18310;55.586;12.286;2023-04-15T14:31:02;101687.41;;;18.36
34807;BMP180;18310;55.586;12.286;2023-04-15T14:34:05;101703.16;;;18.36
34807;BMP180;18310;55.586;12.286;2023-04-15T14:37:09;101706.22;;;18.31
34807;BMP180;18310;55.586;12.286;2023-04-15T14:40:12;101701.16;;;18.33
34807;BMP180;18310;55.586;12.286;2023-04-15T14:43:16;101703.13;;;18.29
34807;BMP180;18310;55.586;12.286;2023-04-15T14:46:20;101722.88;;;18.38
34807;BMP180;18310;55.586;12.286;2023-04-15T14:49:24;101718.06;;;18.31
34807;BMP180;18310;55.586;12.286;2023-04-15T14:52:29;101721.19;;;18.26
34807;BMP180;18310;55.586;12.286;2023-04-15T14:55:34;101734.59;;;18.28
34807;BMP180;18310;55.586;12.286;2023-04-15T14:58:37;101730.69;;;18.32
34807;BMP180;18310;55.586;12.286;2023-04-15T15:01:42;101727.53;;;18.30
34807;BMP180;18310;55.586;12.286;2023-04-15T15:04:46;101738.84;;;18.22
34807;BMP180;18310;55.586;12.286;2023-04-15T15:07:49;101737.66;;;18.19
34807;BMP180;18310;55.586;12.286;2023-04-15T15:10:52;101742.75;;;18.17
34807;BMP180;18310;55.586;12.286;2023-04-15T15:13:56;101755.69;;;18.13
34807;BMP180;18310;55.586;12.286;2023-04-15T15:17:01;101765.91;;;18.09
34807;BMP180;18310;55.586;12.286;2023-04-15T15:20:05;101750.50;;;18.05
34807;BMP180;18310;55.586;12.286;2023-04-15T15:23:10;101746.91;;;18.01
34807;BMP180;18310;55.586;12.286;2023-04-15T15:26:13;101753.94;;;17.94
34807;BMP180;18310;55.586;12.286;2023-04-15T15:29:16;101753.47;;;17.89
34807;BMP180;18310;55.586;12.286;2023-04-15T15:32:21;101752.31;;;17.90
34807;BMP180;18310;55.586;12.286;2023-04-15T15:35:24;101764.88;;;17.87
34807;BMP180;18310;55.586;12.286;2023-04-15T15:38:28;101761.25;;;17.80
34807;BMP180;18310;55.586;12.286;2023-04-15T15:41:31;101763.28;;;17.83
34807;BMP180;18310;55.586;12.286;2023-04-15T15:44:35;101760.88;;;17.81
34807;BMP180;18310;55.586;12.286;2023-04-15T15:47:41;101757.78;;;17.86
34807;BMP180;18310;55.586;12.286;2023-04-15T15:50:45;101766.88;;;17.90
34807;BMP180;18310;55.586;12.286;2023-04-15T15:53:48;101766.09;;;17.90
34807;BMP180;18310;55.586;12.286;2023-04-15T15:56:52;101768.03;;;17.89
34807;BMP180;18310;55.586;12.286;2023-04-15T15:59:55;101768.41;;;17.84
34807;BMP180;18310;55.586;12.286;2023-04-15T16:03:14;101780.19;;;17.85
34807;BMP180;18310;55.586;12.286;2023-04-15T16:06:18;101794.63;;;17.75
34807;BMP180;18310;55.586;12.286;2023-04-15T16:09:21;101770.19;;;17.70
34807;BMP180;18310;55.586;12.286;2023-04-15T16:12:25;101774.84;;;17.66
34807;BMP180;18310;55.586;12.286;2023-04-15T16:15:28;101786.22;;;17.64
34807;BMP180;18310;55.586;12.286;2023-04-15T16:18:33;101782.25;;;17.62
34807;BMP180;18310;55.586;12.286;2023-04-15T16:21:37;101781.84;;;17.60
34807;BMP180;18310;55.586;12.286;2023-04-15T16:24:40;101787.38;;;17.60
34807;BMP180;18310;55.586;12.286;2023-04-15T16:27:44;101798.34;;;17.56
34807;BMP180;18310;55.586;12.286;2023-04-15T16:31:04;101797.81;;;17.47
34807;BMP180;18310;55.586;12.286;2023-04-15T16:34:09;101807.28;;;17.50
34807;BMP180;18310;55.586;12.286;2023-04-15T16:37:12;101801.25;;;17.40
34807;BMP180;18310;55.586;12.286;2023-04-15T16:40:16;101806.75;;;17.40
34807;BMP180;18310;55.586;12.286;2023-04-15T16:43:20;101810.94;;;17.31
34807;BMP180;18310;55.586;12.286;2023-04-15T16:46:25;101820.66;;;17.21
34807;BMP180;18310;55.586;12.286;2023-04-15T16:49:30;101820.28;;;17.23
34807;BMP180;18310;55.586;12.286;2023-04-15T16:52:35;101825.78;;;17.23
34807;BMP180;18310;55.586;12.286;2023-04-15T16:55:39;101834.41;;;17.21
34807;BMP180;18310;55.586;12.286;2023-04-15T16:58:42;101839.03;;;17.14
34807;BMP180;18310;55.586;12.286;2023-04-15T17:01:46;101836.63;;;17.12
34807;BMP180;18310;55.586;12.286;2023-04-15T17:04:51;101852.06;;;17.20
34807;BMP180;18310;55.586;12.286;2023-04-15T17:07:55;101847.19;;;17.10
34807;BMP180;18310;55.586;12.286;2023-04-15T17:10:58;101846.34;;;17.06